Dirección General De Aeronáutica Civil

Dirección Meteorológica de Chile - Servicios Climáticos

Informe General de Control de Calidad de la Estación

Listado de niveles de control de calidad para algunos parámetros
Estación Vicuña INIA (300003)
Fecha de Revisión de los datos :

Elementos

Registros Niveles de Control Total
Nivel 0 Nivel 1 Nivel 2 Nivel 3 Errores Porcentaje
01 Temperatura del Aire Seco 40.283 0 . 33 0.08 % 0 . 0 . 33 0.08 %
02 Temperatura de Rocío 32.229 0 . 0 . 0 . 0 . 0 0.00 %
03 Humedad Relativa del Aire 122.949 0 . 0 . 0 . 0 . 0 0.00 %
04 Temperatura Máxima PM 3.215 0 . 0 . 9 0.28 % 0 . 9 0.28 %
05 Temperatura Mínima AM 3.250 0 . 0 . 0 . 0 . 0 0.00 %
06 Viento a 10 m. de Altura 2.042 0 . 0 . 0 . 0 . 0 0.00 %
07 Agua Caida, Acumulada 6 Horas 20.805 0 . 0 . 0 . 0 . 0 0.00 %
08 Presión Atm. a Nivel de Estación (QFE) 122.127 0 . 0 . 0 . 0 . 0 0.00 %
09 Presión Atm. a Nivel Medio del Mar (QFF) 0 0 . 0 . 0 . 0 . 0 .
10 Presión Atm. Estándar OACI (QNH) 0 0 . 0 . 0 . 0 . 0 .

Totales

346.900 . 0.0000 % . 0.0095 % . 0.0026 % . 0.0000 % 42 0.0121 %

Detalle de Errores Encontrados

Nivel Fecha del Dato Descripción Información Error Fecha Ingreso
1 2019-10-02 11:00:00 Ts debe ser mayor o igual a Td Ts=1.6 - Td=2.2 2023-10-27 05:17:00
1 2019-10-02 12:00:00 Ts debe ser mayor o igual a Td Ts=3.0 - Td=5.3 2023-10-27 05:17:00
1 2019-10-05 11:00:00 Ts debe ser mayor o igual a Td Ts=3.1 - Td=3.5 2023-10-27 05:17:00
1 2019-10-05 12:00:00 Ts debe ser mayor o igual a Td Ts=5.2 - Td=5.7 2023-10-27 05:17:00
1 2019-10-15 12:00:00 Ts debe ser mayor o igual a Td Ts=8.1 - Td=8.5 2023-10-27 05:17:00
1 2019-10-17 11:00:00 Ts debe ser mayor o igual a Td Ts=3.2 - Td=6.3 2023-10-27 05:17:00
1 2019-10-17 12:00:00 Ts debe ser mayor o igual a Td Ts=7.3 - Td=8.3 2023-10-27 05:17:00
1 2019-10-18 11:00:00 Ts debe ser mayor o igual a Td Ts=4.3 - Td=5.6 2023-10-27 05:17:00
1 2019-10-19 08:00:00 Ts debe ser mayor o igual a Td Ts=6.7 - Td=7.2 2023-10-27 05:17:00
1 2019-10-24 11:00:00 Ts debe ser mayor o igual a Td Ts=9.1 - Td=9.3 2023-10-27 05:17:00
1 2019-10-24 12:00:00 Ts debe ser mayor o igual a Td Ts=10.5 - Td=11.7 2023-10-27 05:17:00
1 2019-10-29 11:00:00 Ts debe ser mayor o igual a Td Ts=5.7 - Td=6.3 2023-10-27 05:17:00
1 2019-11-04 11:00:00 Ts debe ser mayor o igual a Td Ts=6.8 - Td=9.1 2023-10-27 05:17:00
1 2019-11-04 12:00:00 Ts debe ser mayor o igual a Td Ts=10.2 - Td=10.8 2023-10-27 05:17:00
1 2019-11-05 11:00:00 Ts debe ser mayor o igual a Td Ts=7.3 - Td=8.9 2023-10-27 05:17:00
1 2019-11-06 11:00:00 Ts debe ser mayor o igual a Td Ts=7.6 - Td=7.7 2023-10-27 05:17:00
1 2019-11-07 11:00:00 Ts debe ser mayor o igual a Td Ts=8.7 - Td=9.4 2023-10-27 05:17:00
1 2019-11-08 11:00:00 Ts debe ser mayor o igual a Td Ts=9.6 - Td=10.4 2023-10-27 05:17:00
1 2019-11-09 11:00:00 Ts debe ser mayor o igual a Td Ts=8.7 - Td=10.8 2023-10-27 05:18:00
1 2019-11-10 10:00:00 Ts debe ser mayor o igual a Td Ts=8.8 - Td=9.0 2023-10-27 05:18:00
1 2019-11-10 11:00:00 Ts debe ser mayor o igual a Td Ts=9.9 - Td=10.2 2023-10-27 05:18:00
1 2019-11-12 11:00:00 Ts debe ser mayor o igual a Td Ts=8.9 - Td=11.2 2023-10-27 05:18:00
1 2019-11-13 11:00:00 Ts debe ser mayor o igual a Td Ts=10.0 - Td=11.0 2023-10-27 05:18:00
1 2019-11-14 11:00:00 Ts debe ser mayor o igual a Td Ts=9.6 - Td=11.4 2023-10-27 05:18:00
1 2019-11-15 11:00:00 Ts debe ser mayor o igual a Td Ts=11.4 - Td=11.8 2023-10-27 05:18:00
1 2019-11-16 11:00:00 Ts debe ser mayor o igual a Td Ts=9.9 - Td=12.8 2023-10-27 05:18:00
1 2019-11-17 11:00:00 Ts debe ser mayor o igual a Td Ts=11.3 - Td=12.4 2023-10-27 05:18:00
1 2019-11-18 11:00:00 Ts debe ser mayor o igual a Td Ts=10.8 - Td=11.5 2023-10-27 05:18:00
1 2019-11-22 11:00:00 Ts debe ser mayor o igual a Td Ts=11.9 - Td=12.2 2023-10-27 05:18:00
1 2019-11-23 11:00:00 Ts debe ser mayor o igual a Td Ts=9.3 - Td=11.5 2023-10-27 05:18:00
1 2019-11-25 11:00:00 Ts debe ser mayor o igual a Td Ts=8.3 - Td=9.9 2023-10-27 05:18:00
1 2019-11-29 11:00:00 Ts debe ser mayor o igual a Td Ts=9.1 - Td=10.5 2023-10-27 05:18:00
1 2019-11-30 11:00:00 Ts debe ser mayor o igual a Td Ts=9.9 - Td=10.8 2023-10-27 05:18:00
Errores del Nivel 33
Nivel Fecha del Dato Descripción Información Error Fecha Ingreso
2 2000-06-10 00:00:00 Temperatura 19.4 del 09-06-2000 18:00, Mayor que la Máxima 19.2 10-06-2000 00:00 19.4 -- 19.2 2023-12-29 02:02:00
2 2000-07-25 00:00:00 Temperatura 26.4 del 24-07-2000 18:00, Mayor que la Máxima 26.2 25-07-2000 00:00 26.4 -- 26.2 2023-12-29 02:02:00
2 2000-10-13 00:00:00 Temperatura 29.4 del 12-10-2000 18:00, Mayor que la Máxima 28.0 13-10-2000 00:00 29.4 -- 28.0 2023-12-29 02:03:00
2 2000-10-18 00:00:00 Temperatura 28.0 del 17-10-2000 18:00, Mayor que la Máxima 27.4 18-10-2000 00:00 28.0 -- 27.4 2023-12-29 02:03:00
2 2002-02-09 00:00:00 Temperatura 28.4 del 08-02-2002 18:00, Mayor que la Máxima 27.4 09-02-2002 00:00 28.4 -- 27.4 2023-12-29 02:04:00
2 2002-05-26 00:00:00 Temperatura 15.6 del 25-05-2002 18:00, Mayor que la Máxima 15.4 26-05-2002 00:00 15.6 -- 15.4 2023-12-29 02:05:00
2 2002-05-27 00:00:00 Temperatura 17.4 del 26-05-2002 18:00, Mayor que la Máxima 12.8 27-05-2002 00:00 17.4 -- 12.8 2023-12-29 02:05:00
2 2002-06-09 00:00:00 Temperatura 20.4 del 08-06-2002 18:00, Mayor que la Máxima 20.2 09-06-2002 00:00 20.4 -- 20.2 2023-12-29 02:05:00
2 2002-11-27 00:00:00 Temperatura 28.8 del 27-11-2002 00:00, Mayor que la Máxima 25.8 27-11-2002 00:00 28.8 -- 25.8 2023-12-29 02:05:00
Errores del Nivel 9
Informe generado el 05-03-2024 09:53
Requerimiento: RE6001